createdAt,value
2023-04-06T00:01:18.526Z,77.06
2023-04-06T00:03:36.038Z,77.34
2023-04-06T00:05:53.219Z,76.83
2023-04-06T00:08:10.566Z,77.26
2023-04-06T00:10:27.633Z,77.11
2023-04-06T00:12:45.026Z,77.32
2023-04-06T00:15:02.868Z,77.04
2023-04-06T00:17:20.198Z,77.36
2023-04-06T00:19:38.076Z,77.04
2023-04-06T00:21:55.080Z,77.24
2023-04-06T00:24:12.095Z,77.47
2023-04-06T00:26:29.167Z,77.11
2023-04-06T00:28:46.332Z,77.33
2023-04-06T00:31:03.675Z,77.49
2023-04-06T00:33:20.727Z,77.80
2023-04-06T00:35:37.767Z,77.58
2023-04-06T00:37:55.067Z,77.27
2023-04-06T00:40:12.033Z,77.62
2023-04-06T00:42:29.193Z,78.10
2023-04-06T00:44:52.306Z,78.28
2023-04-06T00:47:09.293Z,78.08
2023-04-06T00:49:26.269Z,78.08
2023-04-06T00:51:43.589Z,78.23
2023-04-06T00:54:00.626Z,78.21
2023-04-06T00:56:17.924Z,78.42
2023-04-06T00:58:34.914Z,78.16
2023-04-06T01:00:51.972Z,78.18
2023-04-06T01:03:08.877Z,78.48
2023-04-06T01:05:25.843Z,79.11
2023-04-06T01:07:43.027Z,79.08
2023-04-06T01:09:59.928Z,79.44
2023-04-06T01:12:17.011Z,78.15
2023-04-06T01:14:33.911Z,78.71
2023-04-06T01:16:50.913Z,77.69
2023-04-06T01:19:08.332Z,78.84
2023-04-06T01:21:25.681Z,78.68
2023-04-06T01:23:43.004Z,78.80
2023-04-06T01:26:00.165Z,78.50
2023-04-06T01:28:17.187Z,78.59
2023-04-06T01:30:34.456Z,78.72
2023-04-06T01:32:51.636Z,78.75
2023-04-06T01:35:09.037Z,78.57
2023-04-06T01:37:26.378Z,79.10
2023-04-06T01:39:43.669Z,78.17
2023-04-06T01:42:00.690Z,78.64
2023-04-06T01:44:17.598Z,78.09
2023-04-06T01:46:34.578Z,78.26
2023-04-06T01:48:51.575Z,78.79
2023-04-06T01:51:09.525Z,77.98
2023-04-06T01:53:26.654Z,78.39
2023-04-06T01:55:43.924Z,78.62
2023-04-06T01:58:00.971Z,78.68
2023-04-06T02:00:18.229Z,78.66
2023-04-06T02:02:35.266Z,78.58
2023-04-06T02:04:52.598Z,79.73
2023-04-06T02:07:10.459Z,79.00
2023-04-06T02:09:27.450Z,78.78
2023-04-06T02:11:44.766Z,79.29
2023-04-06T02:14:02.804Z,80.16
2023-04-06T02:16:19.890Z,79.77
2023-04-06T02:18:36.894Z,79.73
2023-04-06T02:20:53.842Z,80.28
2023-04-06T02:23:10.934Z,80.49
2023-04-06T02:25:27.988Z,81.10
2023-04-06T02:27:45.038Z,81.10
2023-04-06T02:30:02.164Z,81.52
2023-04-06T02:32:19.143Z,81.08
2023-04-06T02:34:36.101Z,80.01
2023-04-06T02:36:53.149Z,80.48
2023-04-06T02:39:10.563Z,79.82
2023-04-06T02:41:27.978Z,80.59
2023-04-06T02:43:45.057Z,80.50
2023-04-06T02:46:02.142Z,80.66
2023-04-06T02:48:19.542Z,81.10
2023-04-06T02:50:36.665Z,81.28
2023-04-06T02:52:53.702Z,81.26
2023-04-06T02:55:10.799Z,81.31
2023-04-06T02:57:28.191Z,81.63
2023-04-06T02:59:45.503Z,80.87
2023-04-06T03:02:02.542Z,81.12
2023-04-06T03:04:19.585Z,81.45
2023-04-06T03:06:36.610Z,81.17
2023-04-06T03:08:53.911Z,81.32
2023-04-06T03:11:10.883Z,81.11
2023-04-06T03:13:28.139Z,80.95
2023-04-06T03:15:45.156Z,81.36
2023-04-06T03:18:02.334Z,81.08
2023-04-06T03:20:19.291Z,81.94
2023-04-06T03:22:37.356Z,82.11
2023-04-06T03:24:54.284Z,81.77
2023-04-06T03:27:11.325Z,81.46
2023-04-06T03:29:28.200Z,81.91
2023-04-06T03:31:45.920Z,81.96
2023-04-06T03:34:04.110Z,82.36
2023-04-06T03:36:22.062Z,82.77
2023-04-06T03:38:41.324Z,83.33
2023-04-06T03:40:58.775Z,83.74
2023-04-06T03:43:15.761Z,83.73
2023-04-06T03:45:33.784Z,83.16
2023-04-06T03:47:51.912Z,81.70
2023-04-06T03:50:09.025Z,82.05
2023-04-06T03:52:26.993Z,82.40
2023-04-06T03:54:43.861Z,82.71
2023-04-06T03:57:01.162Z,82.32
2023-04-06T03:59:18.146Z,83.00
2023-04-06T04:01:35.454Z,82.42
2023-04-06T04:03:52.877Z,82.97
2023-04-06T04:06:10.008Z,81.75
2023-04-06T04:08:28.049Z,82.09
2023-04-06T04:10:44.978Z,82.45
2023-04-06T04:13:01.913Z,82.07
2023-04-06T04:15:18.798Z,81.88
2023-04-06T04:17:35.790Z,82.34
2023-04-06T04:19:52.748Z,83.08
2023-04-06T04:22:09.615Z,82.76
2023-04-06T04:24:26.516Z,82.48
2023-04-06T04:26:44.386Z,82.75
2023-04-06T04:29:01.302Z,82.56
2023-04-06T04:31:18.314Z,82.01
2023-04-06T04:33:35.370Z,81.62
2023-04-06T04:35:52.388Z,81.57
2023-04-06T04:38:09.483Z,81.81
2023-04-06T04:40:27.555Z,81.92
2023-04-06T04:42:44.458Z,81.71
2023-04-06T04:45:01.682Z,81.76
2023-04-06T04:47:18.560Z,82.45
2023-04-06T04:49:35.527Z,82.51
2023-04-06T04:51:53.761Z,82.92
2023-04-06T04:54:10.755Z,82.56
2023-04-06T04:56:28.064Z,83.08
2023-04-06T04:58:44.954Z,82.97
2023-04-06T05:01:01.998Z,82.43
2023-04-06T05:03:18.938Z,82.99
2023-04-06T05:05:36.286Z,83.09
2023-04-06T05:07:53.593Z,83.40
2023-04-06T05:10:10.533Z,83.06
2023-04-06T05:12:27.789Z,83.27
2023-04-06T05:14:45.006Z,83.60
2023-04-06T05:17:02.256Z,83.50
2023-04-06T05:19:20.553Z,83.51
2023-04-06T05:21:37.589Z,83.17
2023-04-06T05:23:54.577Z,83.55
2023-04-06T05:26:12.815Z,83.16
2023-04-06T05:28:29.730Z,82.32
2023-04-06T05:30:46.819Z,82.63
2023-04-06T05:33:04.563Z,82.47
2023-04-06T05:35:21.617Z,83.17
2023-04-06T05:37:38.910Z,83.42
2023-04-06T05:39:55.894Z,83.66
2023-04-06T05:42:12.914Z,83.31
2023-04-06T05:44:29.912Z,83.80
2023-04-06T05:46:46.954Z,83.38
2023-04-06T05:49:06.700Z,83.64
2023-04-06T05:51:24.270Z,83.59
2023-04-06T05:53:41.223Z,83.87
2023-04-06T05:55:58.522Z,83.71
2023-04-06T05:58:15.544Z,84.25
2023-04-06T06:00:32.796Z,84.04
2023-04-06T06:02:49.823Z,83.52
2023-04-06T06:05:07.380Z,82.92
2023-04-06T06:07:24.306Z,82.95
2023-04-06T06:09:41.222Z,83.30
2023-04-06T06:11:58.263Z,82.71
2023-04-06T06:14:15.156Z,82.94
2023-04-06T06:16:32.155Z,82.50
2023-04-06T06:18:49.260Z,82.95
2023-04-06T06:21:07.175Z,83.12
2023-04-06T06:23:24.093Z,83.23
2023-04-06T06:25:40.973Z,82.90
2023-04-06T06:27:58.266Z,82.73
2023-04-06T06:30:15.249Z,83.18
2023-04-06T06:32:32.277Z,83.17
2023-04-06T06:34:49.528Z,82.86
2023-04-06T06:37:06.601Z,83.21
2023-04-06T06:39:23.750Z,83.62
2023-04-06T06:41:40.976Z,83.75
2023-04-06T06:43:58.316Z,83.69
2023-04-06T06:46:15.397Z,83.69
2023-04-06T06:48:33.634Z,82.94
2023-04-06T06:50:50.563Z,82.53
2023-04-06T06:53:07.472Z,82.90
2023-04-06T06:55:24.759Z,82.77
2023-04-06T06:57:42.003Z,83.01
2023-04-06T06:59:59.333Z,82.58
2023-04-06T07:02:16.272Z,81.56
2023-04-06T07:04:33.242Z,81.19
2023-04-06T07:06:50.587Z,80.81
2023-04-06T07:09:08.501Z,79.52
2023-04-06T07:11:25.567Z,79.78
2023-04-06T07:13:42.686Z,80.37
2023-04-06T07:16:00.653Z,79.16
2023-04-06T07:18:18.689Z,78.60
2023-04-06T07:20:35.694Z,77.85
2023-04-06T07:22:52.927Z,77.41
2023-04-06T07:25:10.161Z,77.45
2023-04-06T07:27:27.150Z,76.41
2023-04-06T07:29:44.160Z,75.70
2023-04-06T07:32:01.455Z,74.74
2023-04-06T07:34:18.460Z,75.00
2023-04-06T07:36:35.484Z,73.76
2023-04-06T07:38:52.489Z,73.87
2023-04-06T07:41:09.879Z,72.98
2023-04-06T07:43:27.155Z,72.60
2023-04-06T07:45:44.101Z,71.88
2023-04-06T07:48:01.153Z,71.96
2023-04-06T07:50:18.270Z,71.06
2023-04-06T07:52:38.200Z,70.29
2023-04-06T07:54:55.355Z,70.02
2023-04-06T07:57:12.209Z,69.19
2023-04-06T07:59:29.162Z,68.33
2023-04-06T08:01:46.119Z,66.58
2023-04-06T08:04:03.527Z,67.37
2023-04-06T08:06:20.700Z,65.54
2023-04-06T08:08:37.664Z,65.99
2023-04-06T08:10:54.930Z,66.15
2023-04-06T08:13:11.833Z,65.25
2023-04-06T08:15:28.939Z,65.31
2023-04-06T08:17:45.934Z,64.33
2023-04-06T08:20:03.198Z,63.14
2023-04-06T08:22:20.422Z,62.82
2023-04-06T08:24:37.491Z,60.61
2023-04-06T08:26:54.527Z,59.70
2023-04-06T08:29:11.426Z,58.95
2023-04-06T08:31:28.534Z,58.46
2023-04-06T08:33:45.520Z,58.72
2023-04-06T08:36:02.487Z,59.01
2023-04-06T08:38:19.715Z,59.03
2023-04-06T08:40:36.780Z,58.42
2023-04-06T08:42:53.979Z,58.71
2023-04-06T08:45:11.046Z,57.45
2023-04-06T08:47:28.093Z,57.34
2023-04-06T08:49:45.102Z,57.26
2023-04-06T08:52:02.069Z,56.12
2023-04-06T08:54:19.117Z,56.46
2023-04-06T08:56:36.238Z,55.32
2023-04-06T08:58:54.572Z,54.76
2023-04-06T09:01:12.979Z,56.24
2023-04-06T09:03:30.181Z,55.86
2023-04-06T09:05:47.160Z,54.77
2023-04-06T09:08:04.193Z,54.03
2023-04-06T09:10:21.400Z,54.34
2023-04-06T09:12:38.356Z,54.36
2023-04-06T09:14:55.596Z,53.39
2023-04-06T09:17:12.523Z,53.38
2023-04-06T09:19:29.554Z,51.13
2023-04-06T09:21:46.522Z,49.87
2023-04-06T09:24:03.617Z,49.76
2023-04-06T09:26:20.596Z,50.59
2023-04-06T09:28:37.537Z,50.04
2023-04-06T09:30:54.825Z,49.76
2023-04-06T09:33:11.960Z,48.85
2023-04-06T09:35:28.821Z,47.29
2023-04-06T09:37:45.827Z,46.62
2023-04-06T09:40:02.845Z,46.13
2023-04-06T09:42:19.763Z,45.43
2023-04-06T09:44:36.744Z,41.02
2023-04-06T09:47:00.488Z,40.01
2023-04-06T09:49:18.529Z,39.26
2023-04-06T09:51:38.709Z,38.78
2023-04-06T09:53:56.826Z,41.18
2023-04-06T09:56:13.845Z,40.81
2023-04-06T09:58:31.144Z,39.67
2023-04-06T10:00:48.134Z,40.63
2023-04-06T10:03:07.703Z,40.01
2023-04-06T10:05:26.136Z,39.29
2023-04-06T10:07:56.645Z,39.88
2023-04-06T10:10:14.066Z,38.50
2023-04-06T10:12:30.955Z,40.58
2023-04-06T10:14:47.990Z,39.76
2023-04-06T10:17:05.053Z,40.15
2023-04-06T10:19:21.976Z,38.67
2023-04-06T10:21:39.189Z,39.88
2023-04-06T10:23:56.134Z,38.63
2023-04-06T10:26:13.161Z,40.62
2023-04-06T10:28:30.032Z,39.62
2023-04-06T10:30:48.331Z,38.97
2023-04-06T10:33:05.457Z,39.11
2023-04-06T10:35:22.551Z,39.77
2023-04-06T10:37:39.870Z,40.08
2023-04-06T10:39:56.911Z,40.33
2023-04-06T10:42:14.055Z,39.99
2023-04-06T10:44:32.048Z,40.22
2023-04-06T10:46:48.953Z,39.11
2023-04-06T10:49:06.994Z,40.72
2023-04-06T10:51:24.253Z,41.31
2023-04-06T10:53:41.544Z,39.34
2023-04-06T10:55:58.763Z,40.50
2023-04-06T10:58:16.058Z,40.00
2023-04-06T11:00:47.071Z,39.93
2023-04-06T11:03:06.985Z,39.46
2023-04-06T11:05:24.321Z,40.08
2023-04-06T11:07:41.260Z,42.13
2023-04-06T11:10:13.839Z,39.00
2023-04-06T11:12:34.049Z,41.17
2023-04-06T11:14:51.077Z,39.77
2023-04-06T11:17:08.457Z,40.76
2023-04-06T11:19:25.372Z,40.27
2023-04-06T11:21:43.477Z,41.67
2023-04-06T11:24:00.438Z,39.92
2023-04-06T11:26:17.702Z,41.74
2023-04-06T11:28:34.742Z,38.85
2023-04-06T11:30:51.828Z,38.75
2023-04-06T11:33:08.833Z,40.21
2023-04-06T11:35:25.784Z,40.25
2023-04-06T11:37:42.789Z,40.43
2023-04-06T11:39:59.716Z,40.84
2023-04-06T11:42:17.026Z,41.70
2023-04-06T11:44:34.293Z,41.01
2023-04-06T11:46:51.664Z,40.70
2023-04-06T11:49:08.676Z,42.47
2023-04-06T11:51:26.698Z,39.90
2023-04-06T11:53:43.768Z,39.59
2023-04-06T11:56:00.776Z,40.32
2023-04-06T11:58:18.182Z,40.22
2023-04-06T12:00:35.106Z,40.14
2023-04-06T12:02:52.040Z,40.62
2023-04-06T12:05:09.003Z,39.78
2023-04-06T12:07:26.235Z,40.93
2023-04-06T12:09:44.292Z,38.81
2023-04-06T12:12:01.315Z,40.23
2023-04-06T12:14:18.404Z,39.36
2023-04-06T12:16:35.832Z,41.09
2023-04-06T12:18:52.959Z,41.15
2023-04-06T12:21:10.153Z,40.17
2023-04-06T12:23:27.137Z,41.04
2023-04-06T12:25:44.097Z,42.03
2023-04-06T12:28:01.000Z,41.31
2023-04-06T12:30:18.312Z,39.65
2023-04-06T12:32:35.308Z,40.27
2023-04-06T12:34:52.292Z,40.15
2023-04-06T12:37:09.312Z,40.68
2023-04-06T12:39:26.524Z,41.81
2023-04-06T12:41:43.563Z,41.61
2023-04-06T12:44:00.528Z,41.44
2023-04-06T12:46:17.669Z,39.65
2023-04-06T12:48:34.669Z,41.38
2023-04-06T12:50:51.893Z,41.17
2023-04-06T12:53:08.772Z,40.80
2023-04-06T12:55:25.804Z,41.37
2023-04-06T12:57:42.855Z,40.09
2023-04-06T13:00:00.363Z,40.01
2023-04-06T13:02:17.765Z,43.04
2023-04-06T13:04:35.146Z,42.55
2023-04-06T13:06:52.437Z,40.30
2023-04-06T13:09:09.399Z,41.05
2023-04-06T13:11:28.343Z,42.43
2023-04-06T13:13:46.137Z,40.72
2023-04-06T13:16:03.146Z,40.47
2023-04-06T13:18:20.226Z,43.00
2023-04-06T13:20:37.390Z,43.41
2023-04-06T13:22:54.370Z,40.51
2023-04-06T13:25:11.430Z,41.37
2023-04-06T13:27:28.494Z,42.22
2023-04-06T13:29:45.570Z,42.12
2023-04-06T13:32:03.852Z,43.17
2023-04-06T13:34:20.894Z,42.50
2023-04-06T13:36:37.921Z,42.96
2023-04-06T13:38:54.961Z,42.42
2023-04-06T13:41:11.892Z,44.14
2023-04-06T13:43:28.972Z,42.67
2023-04-06T13:45:46.036Z,43.71
2023-04-06T13:48:03.203Z,42.88
2023-04-06T13:50:20.197Z,42.86
2023-04-06T13:52:37.269Z,44.33
2023-04-06T13:54:54.497Z,45.20
2023-04-06T13:57:12.101Z,44.73
2023-04-06T13:59:29.855Z,44.57
2023-04-06T14:01:47.591Z,44.27
2023-04-06T14:04:05.317Z,44.81
2023-04-06T14:06:31.079Z,45.28
2023-04-06T14:08:48.831Z,46.07
2023-04-06T14:11:05.733Z,45.20
2023-04-06T14:13:23.056Z,45.12
2023-04-06T14:15:40.093Z,44.43
2023-04-06T14:17:57.536Z,44.51
2023-04-06T14:20:14.553Z,45.34
2023-04-06T14:22:31.559Z,45.35
2023-04-06T14:24:48.538Z,45.90
2023-04-06T14:27:05.591Z,45.84
2023-04-06T14:29:22.622Z,46.96
2023-04-06T14:31:40.859Z,47.77
2023-04-06T14:33:57.774Z,46.36
2023-04-06T14:36:15.087Z,46.35
2023-04-06T14:38:32.026Z,46.58
2023-04-06T14:40:49.314Z,47.60
2023-04-06T14:43:06.589Z,48.31
2023-04-06T14:45:23.634Z,48.05
2023-04-06T14:47:40.609Z,48.29
2023-04-06T14:49:58.460Z,48.37
2023-04-06T14:52:15.478Z,49.38
2023-04-06T14:54:32.796Z,49.52
2023-04-06T14:56:49.842Z,50.03
2023-04-06T14:59:06.914Z,51.76
2023-04-06T15:01:24.064Z,52.40
2023-04-06T15:03:41.164Z,53.42
2023-04-06T15:05:58.274Z,54.45
2023-04-06T15:08:15.344Z,55.38
2023-04-06T15:10:32.284Z,56.04
2023-04-06T15:12:49.224Z,56.79
2023-04-06T15:15:06.354Z,57.55
2023-04-06T15:17:23.670Z,57.72
2023-04-06T15:19:41.068Z,58.75
2023-04-06T15:21:59.629Z,58.47
2023-04-06T15:24:18.155Z,59.65
2023-04-06T15:26:35.406Z,60.13
2023-04-06T15:28:52.405Z,60.40
2023-04-06T15:31:09.694Z,61.43
2023-04-06T15:33:26.630Z,61.13
2023-04-06T15:35:43.558Z,62.16
2023-04-06T15:38:00.988Z,62.53
2023-04-06T15:40:18.046Z,62.88
2023-04-06T15:42:35.324Z,64.69
2023-04-06T15:44:52.348Z,64.94
2023-04-06T15:47:09.410Z,65.32
2023-04-06T15:49:27.723Z,67.26
2023-04-06T15:51:45.059Z,67.89
2023-04-06T15:54:02.329Z,67.33
2023-04-06T15:56:19.201Z,68.59
2023-04-06T15:58:36.116Z,69.70
2023-04-06T16:00:53.091Z,69.92
2023-04-06T16:03:10.437Z,73.09
2023-04-06T16:05:28.615Z,73.70
2023-04-06T16:07:47.135Z,73.90
2023-04-06T16:10:04.480Z,73.08
2023-04-06T16:12:21.736Z,74.84
2023-04-06T16:14:38.844Z,72.62
2023-04-06T16:16:55.802Z,74.25
2023-04-06T16:19:13.136Z,75.26
2023-04-06T16:21:30.381Z,74.26
2023-04-06T16:23:47.562Z,74.31
2023-04-06T16:26:04.653Z,73.36
2023-04-06T16:28:21.965Z,75.62
2023-04-06T16:30:39.268Z,75.13
2023-04-06T16:32:56.494Z,75.57
2023-04-06T16:35:13.495Z,76.92
2023-04-06T16:37:30.401Z,79.66
2023-04-06T16:39:47.308Z,75.93
2023-04-06T16:42:04.222Z,76.79
2023-04-06T16:44:21.121Z,78.72
2023-04-06T16:46:39.101Z,80.76
2023-04-06T16:48:56.415Z,80.47
2023-04-06T16:51:13.386Z,80.70
2023-04-06T16:53:30.437Z,83.18
2023-04-06T16:55:47.344Z,84.03
2023-04-06T16:58:04.459Z,83.29
2023-04-06T17:00:21.772Z,84.32
2023-04-06T17:02:38.896Z,85.76
2023-04-06T17:04:55.977Z,83.83
2023-04-06T17:07:12.963Z,85.82
2023-04-06T17:09:30.277Z,86.47
2023-04-06T17:11:47.654Z,86.26
2023-04-06T17:14:04.779Z,84.18
2023-04-06T17:16:22.148Z,85.58
2023-04-06T17:18:39.529Z,86.91
2023-04-06T17:20:56.851Z,87.11
2023-04-06T17:25:32.282Z,86.49
2023-04-06T17:27:49.429Z,85.25
2023-04-06T17:30:06.398Z,85.80
2023-04-06T17:32:23.794Z,87.79
2023-04-06T17:34:40.796Z,87.56
2023-04-06T17:36:58.861Z,88.52
2023-04-06T17:39:15.947Z,87.57
2023-04-06T17:41:33.224Z,88.65
2023-04-06T17:43:50.288Z,88.57
2023-04-06T17:46:08.638Z,88.06
2023-04-06T17:48:25.667Z,88.26
2023-04-06T17:50:42.617Z,88.71
2023-04-06T17:52:59.579Z,88.56
2023-04-06T17:55:16.833Z,90.22
2023-04-06T17:57:33.872Z,90.54
2023-04-06T17:59:51.122Z,91.22
2023-04-06T18:02:08.198Z,90.80
2023-04-06T18:04:25.753Z,89.73
2023-04-06T18:06:42.806Z,89.62
2023-04-06T18:09:00.096Z,89.73
2023-04-06T18:11:17.125Z,89.47
2023-04-06T18:13:34.118Z,90.11
2023-04-06T18:15:51.581Z,90.06
2023-04-06T18:18:09.761Z,88.47
2023-04-06T18:20:27.076Z,88.86
2023-04-06T18:22:45.360Z,87.38
2023-04-06T18:25:02.540Z,88.10
2023-04-06T18:27:19.976Z,87.16
2023-04-06T18:29:37.192Z,88.39
2023-04-06T18:31:54.670Z,87.87
2023-04-06T18:34:11.740Z,88.64
2023-04-06T18:36:29.002Z,88.54
2023-04-06T18:38:46.294Z,88.15
2023-04-06T18:41:04.612Z,89.48
2023-04-06T18:43:21.611Z,90.73
2023-04-06T18:45:38.511Z,90.98
2023-04-06T18:47:55.522Z,90.71
2023-04-06T18:50:12.552Z,91.40
2023-04-06T18:52:29.600Z,92.13
2023-04-06T18:54:46.610Z,89.92
2023-04-06T18:57:03.866Z,90.38
2023-04-06T18:59:20.926Z,91.93
2023-04-06T19:01:38.000Z,91.43
2023-04-06T19:03:55.296Z,91.65
2023-04-06T19:06:13.021Z,91.38
2023-04-06T19:08:30.327Z,90.64
2023-04-06T19:10:48.207Z,91.35
2023-04-06T19:13:05.479Z,90.51
2023-04-06T19:15:22.730Z,91.37
2023-04-06T19:17:39.993Z,91.43
2023-04-06T19:19:57.381Z,91.14
2023-04-06T19:22:14.342Z,91.41
2023-04-06T19:24:31.345Z,91.21
2023-04-06T19:26:48.456Z,91.92
2023-04-06T19:29:05.799Z,91.97
2023-04-06T19:31:23.122Z,92.58
2023-04-06T19:33:40.447Z,92.13
2023-04-06T19:35:57.526Z,92.19
2023-04-06T19:38:14.598Z,92.83
2023-04-06T19:40:31.719Z,92.31
2023-04-06T19:42:48.987Z,93.01
2023-04-06T19:45:06.304Z,92.24
2023-04-06T19:47:23.360Z,92.50
2023-04-06T19:49:41.392Z,93.62
2023-04-06T19:51:58.330Z,92.41
2023-04-06T19:54:15.395Z,92.30
2023-04-06T19:56:32.313Z,92.41
2023-04-06T19:58:49.697Z,92.36
2023-04-06T20:01:06.568Z,91.86
2023-04-06T20:03:23.786Z,92.39
2023-04-06T20:05:40.762Z,93.02
2023-04-06T20:07:57.790Z,93.30
2023-04-06T20:10:14.681Z,93.23
2023-04-06T20:12:31.744Z,93.96
2023-04-06T20:14:48.805Z,92.66
2023-04-06T20:17:06.161Z,92.62
2023-04-06T20:19:23.490Z,93.67
2023-04-06T20:21:41.500Z,92.67
2023-04-06T20:23:58.845Z,92.59
2023-04-06T20:26:16.082Z,93.02
2023-04-06T20:28:33.373Z,93.33
2023-04-06T20:30:51.276Z,92.63
2023-04-06T20:33:08.412Z,92.23
2023-04-06T20:35:25.741Z,92.50
2023-04-06T20:37:43.700Z,92.74
2023-04-06T20:40:01.760Z,91.72
2023-04-06T20:42:19.091Z,91.18
2023-04-06T20:44:36.167Z,91.83
2023-04-06T20:46:53.502Z,92.04
2023-04-06T20:49:10.489Z,92.42
2023-04-06T20:51:27.410Z,93.36
2023-04-06T20:53:44.444Z,93.35
2023-04-06T20:56:01.785Z,93.56
2023-04-06T20:58:19.701Z,93.88
2023-04-06T21:00:36.805Z,94.61
2023-04-06T21:02:55.335Z,94.41
2023-04-06T21:05:12.651Z,94.36
2023-04-06T21:07:30.057Z,93.72
2023-04-06T21:09:47.990Z,92.97
2023-04-06T21:12:04.971Z,93.99
2023-04-06T21:14:22.557Z,93.82
2023-04-06T21:16:40.394Z,93.23
2023-04-06T21:18:57.560Z,92.97
2023-04-06T21:21:15.662Z,92.95
2023-04-06T21:23:32.740Z,93.58
2023-04-06T21:25:49.888Z,93.03
2023-04-06T21:28:07.854Z,92.34
2023-04-06T21:30:26.093Z,92.92
2023-04-06T21:32:43.052Z,92.57
2023-04-06T21:35:00.001Z,93.77
2023-04-06T21:37:18.466Z,93.13
2023-04-06T21:39:37.050Z,92.98
2023-04-06T21:41:54.345Z,93.60
2023-04-06T21:44:11.416Z,93.61
2023-04-06T21:46:28.341Z,93.62
2023-04-06T21:48:45.719Z,93.40
2023-04-06T21:51:02.992Z,93.65
2023-04-06T21:53:20.086Z,93.66
2023-04-06T21:55:37.357Z,93.56
2023-04-06T21:57:54.419Z,92.76
2023-04-06T22:00:11.456Z,92.94
2023-04-06T22:02:29.215Z,94.20
2023-04-06T22:04:46.846Z,93.84
2023-04-06T22:07:05.086Z,94.39
2023-04-06T22:09:22.163Z,94.70
2023-04-06T22:11:39.237Z,94.44
2023-04-06T22:13:56.198Z,93.99
2023-04-06T22:16:14.312Z,94.07
2023-04-06T22:18:31.613Z,94.43
2023-04-06T22:20:49.002Z,94.82
2023-04-06T22:23:06.225Z,94.79
2023-04-06T22:25:24.318Z,94.44
2023-04-06T22:27:41.377Z,94.83
2023-04-06T22:29:58.717Z,94.24
2023-04-06T22:32:16.196Z,93.80
2023-04-06T22:34:33.343Z,93.82
2023-04-06T22:36:50.348Z,94.03
2023-04-06T22:39:07.513Z,93.91
2023-04-06T22:41:24.836Z,93.72
2023-04-06T22:43:41.789Z,92.40
2023-04-06T22:45:59.837Z,93.70
2023-04-06T22:48:17.242Z,92.97
2023-04-06T22:50:34.267Z,93.97
2023-04-06T22:52:51.280Z,93.78
2023-04-06T22:55:08.291Z,94.23
2023-04-06T22:57:25.713Z,94.97
2023-04-06T22:59:43.115Z,95.07
2023-04-06T23:02:00.306Z,95.25
2023-04-06T23:04:17.685Z,94.74
2023-04-06T23:06:35.187Z,94.25
2023-04-06T23:08:52.341Z,93.96
2023-04-06T23:11:09.259Z,93.67
2023-04-06T23:13:26.326Z,93.13
2023-04-06T23:15:44.499Z,93.51
2023-04-06T23:18:01.570Z,93.88
2023-04-06T23:20:18.619Z,94.13
2023-04-06T23:22:35.642Z,93.94
2023-04-06T23:24:53.041Z,94.24
2023-04-06T23:27:10.144Z,93.64
2023-04-06T23:29:27.189Z,94.18
2023-04-06T23:31:44.261Z,94.02
2023-04-06T23:34:01.931Z,94.16
2023-04-06T23:36:19.175Z,94.41
2023-04-06T23:38:36.196Z,94.13
2023-04-06T23:40:53.315Z,94.77
2023-04-06T23:43:11.335Z,94.95
2023-04-06T23:45:28.422Z,95.05
2023-04-06T23:47:46.419Z,94.66
2023-04-06T23:50:03.369Z,94.38
2023-04-06T23:52:20.776Z,94.61
2023-04-06T23:54:37.927Z,94.44
2023-04-06T23:56:55.014Z,93.41
2023-04-06T23:59:11.973Z,93.54
